Time;durP1;ratioP1;P1;durP2;ratioP2;P2;SDS_P1;SDS_P2;PMS_P1;PMS_P2;Temp;Humidity;BMP_temperature;BMP_pressure;BME280_temperature;BME280_humidity;BME280_pressure;Samples;Min_cycle;Max_cycle;Signal;HPM_P1;HPM_P2
2022/09/01 00:00:13;;;;;;;4.33;2.80;;;;;;;20.33;100.00;99807.50;1779611;80;21035;-56
2022/09/01 00:02:41;;;;;;;5.75;3.25;;;;;;;20.32;100.00;99805.91;1780186;80;21920;-56
2022/09/01 00:05:09;;;;;;;6.60;2.80;;;;;;;20.26;100.00;99808.26;1779438;80;20927;-62
2022/09/01 00:07:37;;;;;;;5.43;3.43;;;;;;;20.27;100.00;99813.31;1779467;80;21486;-66
2022/09/01 00:10:06;;;;;;;8.03;2.97;;;;;;;20.27;100.00;99820.46;1779390;80;21477;-56
2022/09/01 00:12:34;;;;;;;4.33;2.73;;;;;;;20.28;100.00;99814.11;1779670;80;21478;-57
2022/09/01 00:15:01;;;;;;;5.60;3.10;;;;;;;20.16;100.00;99818.28;1779372;80;22120;-65
2022/09/01 00:17:29;;;;;;;6.07;3.07;;;;;;;20.09;100.00;99817.71;1779292;80;21333;-65
2022/09/01 00:19:56;;;;;;;4.93;2.57;;;;;;;20.08;100.00;99822.21;1779143;80;20984;-56
2022/09/01 00:22:24;;;;;;;15.37;3.17;;;;;;;20.00;100.00;99818.73;1779387;80;21126;-56
2022/09/01 00:24:52;;;;;;;4.53;2.87;;;;;;;19.97;100.00;99817.13;1778976;80;21004;-64
2022/09/01 00:27:21;;;;;;;4.87;3.03;;;;;;;19.86;100.00;99810.97;1779426;80;21213;-56
2022/09/01 00:29:48;;;;;;;5.40;3.60;;;;;;;19.84;100.00;99810.41;1778873;80;20920;-56
2022/09/01 00:32:16;;;;;;;6.90;3.10;;;;;;;19.82;100.00;99816.49;1779386;80;21237;-56
2022/09/01 00:34:43;;;;;;;3.93;2.80;;;;;;;19.82;100.00;99825.75;1779276;80;20967;-62
2022/09/01 00:37:11;;;;;;;4.60;3.20;;;;;;;19.79;100.00;99825.72;1779349;80;21059;-56
2022/09/01 00:39:39;;;;;;;3.90;2.83;;;;;;;19.80;100.00;99817.26;1778974;80;21176;-65
2022/09/01 00:42:06;;;;;;;6.10;2.70;;;;;;;19.77;100.00;99822.52;1779445;80;21038;-56
2022/09/01 00:44:35;;;;;;;4.77;2.60;;;;;;;19.76;100.00;99822.79;1779629;80;21581;-57
2022/09/01 00:47:02;;;;;;;7.10;3.00;;;;;;;19.77;100.00;99816.44;1779079;80;20932;-57
2022/09/01 00:49:39;;;;;;;5.30;3.03;;;;;;;19.74;100.00;99819.61;1779826;80;21294;-57
2022/09/01 00:52:20;;;;;;;5.57;2.83;;;;;;;19.75;100.00;99823.84;1774717;80;22093;-56
2022/09/01 00:54:51;;;;;;;5.20;3.30;;;;;;;19.69;100.00;99826.44;1774447;80;21551;-56
2022/09/01 00:57:19;;;;;;;6.03;3.05;;;;;;;19.72;100.00;99836.25;1770659;80;23775;-57
2022/09/01 01:00:10;;;;;;;5.83;3.20;;;;;;;19.68;100.00;99830.14;1771305;80;21011;-56
2022/09/01 01:02:39;;;;;;;4.58;2.67;;;;;;;19.69;100.00;99829.61;1771632;80;21455;-56
2022/09/01 01:05:07;;;;;;;4.93;3.10;;;;;;;19.64;100.00;99829.05;1770893;80;21787;-56
2022/09/01 01:07:37;;;;;;;4.03;3.23;;;;;;;19.57;100.00;99828.44;1771020;80;21447;-56
2022/09/01 01:10:06;;;;;;;4.10;3.13;;;;;;;19.52;100.00;99823.64;1771004;80;21054;-65
2022/09/01 01:12:39;;;;;;;6.33;3.10;;;;;;;19.45;100.00;99826.48;1771221;80;20986;-56
2022/09/01 01:15:05;;;;;;;5.70;3.20;;;;;;;19.35;100.00;99829.03;1770195;80;21019;-56
2022/09/01 01:17:32;;;;;;;4.97;3.10;;;;;;;19.28;100.00;99830.59;1771234;80;21839;-56
2022/09/01 01:23:35;;;;;;;5.43;3.03;;;;;;;19.22;100.00;99821.53;1770499;80;21015;-57
2022/09/01 01:26:04;;;;;;;4.70;3.43;;;;;;;19.18;100.00;99825.20;1771014;80;20968;-55
2022/09/01 01:28:34;;;;;;;4.83;3.50;;;;;;;19.18;100.00;99825.20;1771172;80;21011;-56
2022/09/01 01:31:04;;;;;;;;;;;;;;;19.16;100.00;99821.47;1774012;80;21216;-56
2022/09/01 01:33:40;;;;;;;5.10;3.07;;;;;;;19.19;100.00;99823.61;1774376;80;20140;-66
2022/09/01 01:36:31;;;;;;;6.07;3.30;;;;;;;19.16;100.00;99822.79;1771268;80;21483;-56
2022/09/01 01:39:01;;;;;;;4.87;2.87;;;;;;;19.14;100.00;99822.26;1770150;80;20900;-60
2022/09/01 01:41:25;;;;;;;4.80;3.47;;;;;;;19.15;100.00;99824.38;1769873;80;21288;-58
2022/09/01 01:43:53;;;;;;;5.17;3.10;;;;;;;19.11;100.00;99825.39;1771226;80;21301;-56
2022/09/01 01:46:20;;;;;;;8.10;3.20;;;;;;;19.14;100.00;99834.14;1771099;80;20960;-55
2022/09/01 01:48:49;;;;;;;5.77;3.03;;;;;;;19.09;100.00;99834.11;1770716;80;21022;-58
2022/09/01 01:51:20;;;;;;;6.17;3.30;;;;;;;19.03;100.00;99831.13;1770437;80;20995;-57
2022/09/01 01:53:51;;;;;;;5.42;3.22;;;;;;;18.98;100.00;99832.41;1771285;80;22277;-58
2022/09/01 01:56:18;;;;;;;4.67;3.33;;;;;;;19.00;100.00;99836.11;1770811;80;21973;-56
2022/09/01 01:58:45;;;;;;;4.33;3.07;;;;;;;18.98;100.00;99832.41;1770553;80;21483;-65
2022/09/01 02:01:13;;;;;;;6.03;3.03;;;;;;;18.98;100.00;99827.13;1771117;80;20967;-66
2022/09/01 02:03:40;;;;;;;4.47;2.90;;;;;;;18.97;100.00;99822.86;1770457;80;21079;-56
2022/09/01 02:06:09;;;;;;;7.17;3.60;;;;;;;18.94;100.00;99824.18;1771199;80;21503;-56
2022/09/01 02:08:37;;;;;;;6.17;2.83;;;;;;;18.95;100.00;99837.66;1771175;80;21914;-57
2022/09/01 02:11:05;;;;;;;5.97;2.90;;;;;;;18.98;100.00;99836.38;1770536;80;20963;-57
2022/09/01 02:13:32;;;;;;;6.77;3.50;;;;;;;19.00;100.00;99832.94;1770697;80;21454;-60
2022/09/01 02:16:06;;;;;;;5.50;3.23;;;;;;;19.03;100.00;99831.66;1771003;80;21066;-57
2022/09/01 02:18:36;;;;;;;7.83;3.20;;;;;;;19.05;100.00;99834.83;1770960;80;20988;-66
2022/09/01 02:21:09;;;;;;;5.00;3.23;;;;;;;19.04;100.00;99831.39;1771035;80;21522;-56
2022/09/01 02:23:38;;;;;;;6.73;3.53;;;;;;;19.06;100.00;99835.13;1770185;80;21000;-57
2022/09/01 02:26:07;;;;;;;4.83;3.33;;;;;;;19.17;100.00;99831.54;1771354;80;21388;-56
2022/09/01 02:28:41;;;;;;;6.77;3.70;;;;;;;19.19;100.00;99834.19;1770635;80;21001;-66
2022/09/01 02:31:07;;;;;;;5.25;3.50;;;;;;;19.26;100.00;99834.52;1770967;80;21281;-66
2022/09/01 02:33:35;;;;;;;6.10;3.73;;;;;;;19.23;100.00;99834.48;1770911;80;21968;-56
2022/09/01 02:36:07;;;;;;;4.97;3.83;;;;;;;19.28;100.00;99832.41;1770988;80;20975;-59
2022/09/01 02:38:34;;;;;;;5.42;3.30;;;;;;;19.34;100.00;99836.70;1770712;80;20937;-58
2022/09/01 02:41:02;;;;;;;5.40;3.07;;;;;;;19.35;100.00;99847.54;1771120;80;22009;-62
2022/09/01 02:43:30;;;;;;;6.07;3.60;;;;;;;19.38;100.00;99845.19;1770486;80;21130;-56
2022/09/01 02:45:59;;;;;;;5.20;3.67;;;;;;;19.47;100.00;99843.41;1771179;80;22494;-56
2022/09/01 02:48:36;;;;;;;5.63;3.70;;;;;;;19.43;100.00;99835.18;1770785;80;20984;-61
2022/09/01 02:51:07;;;;;;;5.47;3.43;;;;;;;19.48;100.00;99835.25;1770394;80;21214;-63
2022/09/01 02:53:35;;;;;;;5.67;3.60;;;;;;;19.42;100.00;99838.36;1771212;80;21429;-56
2022/09/01 02:56:08;;;;;;;5.40;3.63;;;;;;;19.45;100.00;99833.10;1771389;80;21047;-58
2022/09/01 02:58:44;;;;;;;5.70;3.20;;;;;;;19.60;100.00;99838.52;1770620;80;21221;-56
2022/09/01 03:01:02;;;;;;;6.97;2.97;;;;;;;19.60;100.00;99838.52;1768825;80;21975;-61
2022/09/01 03:03:29;;;;;;;6.40;3.37;;;;;;;19.64;100.00;99840.95;1771195;80;21507;-56
2022/09/01 03:05:58;;;;;;;9.27;3.53;;;;;;;19.67;100.00;99835.69;1771017;80;20992;-57
2022/09/01 03:08:26;;;;;;;4.83;2.90;;;;;;;19.72;100.00;99832.28;1770698;80;21482;-56
2022/09/01 03:10:55;;;;;;;6.47;3.07;;;;;;;19.81;100.00;99837.36;1770890;80;21271;-60
2022/09/01 03:13:23;;;;;;;5.27;3.00;;;;;;;19.83;100.00;99842.67;1770910;80;20924;-56
2022/09/01 03:15:50;;;;;;;7.23;3.20;;;;;;;19.88;100.00;99840.05;1770994;80;21517;-56
2022/09/01 03:18:18;;;;;;;5.63;2.97;;;;;;;19.91;100.00;99838.77;1770630;80;20940;-56
2022/09/01 03:20:45;;;;;;;4.40;3.03;;;;;;;19.91;100.00;99833.47;1770851;80;21439;-58
2022/09/01 03:23:15;;;;;;;5.83;3.30;;;;;;;19.90;100.00;99838.50;1771023;80;21146;-56
2022/09/01 03:25:43;;;;;;;5.17;2.97;;;;;;;19.95;100.00;99839.05;1771021;80;21458;-57
2022/09/01 03:28:14;;;;;;;6.53;3.10;;;;;;;19.95;100.00;99835.88;1770564;80;20984;-57
2022/09/01 03:30:48;;;;;;;7.13;3.33;;;;;;;20.01;100.00;99841.48;1771044;80;20983;-60
2022/09/01 03:33:16;;;;;;;7.13;2.70;;;;;;;20.07;100.00;99831.71;1771168;80;21475;-56
2022/09/01 03:35:44;;;;;;;4.33;2.70;;;;;;;20.12;100.00;99835.20;1770946;80;21275;-67
2022/09/01 03:38:12;;;;;;;10.70;3.50;;;;;;;20.13;100.00;99842.08;1763956;80;21497;-56
2022/09/01 03:40:39;;;;;;;7.77;3.30;;;;;;;20.12;100.00;99849.75;1771148;80;20991;-67
2022/09/01 03:43:12;;;;;;;4.63;2.67;;;;;;;20.19;100.00;99854.80;1770758;80;20964;-56
2022/09/01 03:45:40;;;;;;;7.20;3.27;;;;;;;20.21;100.00;99854.56;1771095;80;20996;-58
2022/09/01 03:48:08;;;;;;;6.17;3.50;;;;;;;20.23;100.00;99858.55;1764485;80;21831;-56
2022/09/01 03:50:39;;;;;;;4.87;3.00;;;;;;;20.24;100.00;99853.52;1770912;80;20890;-64
2022/09/01 03:53:07;;;;;;;4.70;3.30;;;;;;;20.23;100.00;99846.64;1771022;80;21054;-56
2022/09/01 03:55:36;;;;;;;5.10;3.10;;;;;;;20.34;100.00;99855.41;1771075;80;20936;-67
2022/09/01 03:58:06;;;;;;;5.97;2.80;;;;;;;20.29;100.00;99855.39;1764511;80;21473;-57
2022/09/01 04:00:41;;;;;;;7.70;2.92;;;;;;;20.36;100.00;99857.28;1771225;80;21197;-59
2022/09/01 04:03:10;;;;;;;4.03;2.23;;;;;;;20.46;100.00;99849.40;1770831;80;21449;-57
2022/09/01 04:05:39;;;;;;;7.47;2.53;;;;;;;20.48;100.00;99847.81;1770796;80;21419;-56
2022/09/01 04:08:10;;;;;;;5.53;2.63;;;;;;;20.59;100.00;99852.91;1771094;80;20993;-57
2022/09/01 04:10:46;;;;;;;5.40;2.90;;;;;;;20.90;100.00;99851.69;1770730;80;20901;-57
2022/09/01 04:13:26;;;;;;;5.63;2.30;;;;;;;21.21;100.00;99847.25;1773993;80;21128;-56
2022/09/01 04:15:55;;;;;;;5.37;2.47;;;;;;;21.45;100.00;99840.95;1771101;80;20967;-56
2022/09/01 04:18:23;;;;;;;5.40;2.93;;;;;;;21.59;100.00;99838.05;1770717;80;20979;-58
2022/09/01 04:20:55;;;;;;;5.80;2.97;;;;;;;21.80;100.00;99835.36;1770771;80;21553;-65
2022/09/01 04:23:28;;;;;;;4.30;2.70;;;;;;;21.85;100.00;99840.13;1771298;80;21105;-57
2022/09/01 04:26:07;;;;;;;4.97;3.17;;;;;;;21.98;100.00;99839.33;1771530;80;21141;-58
2022/09/01 04:28:33;;;;;;;4.90;2.70;;;;;;;22.03;100.00;99839.30;1770573;80;21035;-62
2022/09/01 04:31:04;;;;;;;5.17;2.87;;;;;;;22.06;100.00;99835.59;1771070;80;21035;-56
2022/09/01 04:33:38;;;;;;;9.05;2.98;;;;;;;22.09;100.00;99837.70;1749584;80;21046;-56
2022/09/01 04:36:01;;;;;;;3.37;2.23;;;;;;;22.11;100.00;99834.77;1770168;80;22363;-57
2022/09/01 04:38:29;;;;;;;5.60;3.00;;;;;;;22.19;100.00;99831.59;1770873;80;21125;-60
2022/09/01 04:40:57;;;;;;;4.33;2.10;;;;;;;22.39;100.00;99832.58;1771058;80;21034;-58
2022/09/01 04:43:24;;;;;;;6.13;2.60;;;;;;;22.79;100.00;99824.97;1749460;80;20992;-56
2022/09/01 04:45:52;;;;;;;4.67;2.50;;;;;;;23.31;100.00;99832.38;1771081;80;20999;-67
2022/09/01 04:48:20;;;;;;;4.73;3.17;;;;;;;23.56;100.00;99833.23;1771026;80;21023;-58
2022/09/01 04:50:50;;;;;;;7.53;3.03;;;;;;;23.77;100.00;99836.01;1770937;80;21155;-56
2022/09/01 04:53:19;;;;;;;3.62;2.75;;;;;;;23.96;100.00;99836.09;1770908;80;20956;-56
2022/09/01 04:55:48;;;;;;;3.73;2.83;;;;;;;24.13;100.00;99829.00;1771108;80;21087;-66
2022/09/01 04:58:17;;;;;;;6.17;2.80;;;;;;;24.23;100.00;99839.52;1770651;80;21063;-66
2022/09/01 05:00:48;;;;;;;4.80;2.93;;;;;;;24.53;100.00;99842.16;1771578;80;22125;-56
2022/09/01 05:03:20;;;;;;;5.47;3.47;;;;;;;24.87;100.00;99833.42;1771477;80;21292;-56
2022/09/01 05:05:59;;;;;;;3.93;2.73;;;;;;;25.06;100.00;99833.42;1770562;80;20932;-66
2022/09/01 05:08:27;;;;;;;5.33;2.90;;;;;;;25.02;100.00;99832.97;1771359;80;21250;-56
2022/09/01 05:10:57;;;;;;;3.42;2.40;;;;;;;24.92;100.00;99834.68;1771797;80;21113;-56
2022/09/01 05:13:37;;;;;;;4.80;2.70;;;;;;;24.80;100.00;99834.33;1771051;80;21474;-56
2022/09/01 05:16:11;;;;;;;7.07;3.37;;;;;;;24.60;100.00;99842.05;1770995;80;21745;-57
2022/09/01 05:18:35;;;;;;;4.47;2.87;;;;;;;24.54;100.00;99837.86;1771108;80;21078;-56
2022/09/01 05:21:10;;;;;;;5.13;2.77;;;;;;;24.45;100.00;99836.38;1771554;80;21466;-60
2022/09/01 05:23:40;;;;;;;4.80;3.07;;;;;;;24.30;100.00;99839.19;1771293;80;21647;-64
2022/09/01 05:26:16;;;;;;;5.47;2.90;;;;;;;24.07;100.00;99835.99;1749054;80;21575;-56
2022/09/01 05:28:52;;;;;;;7.20;2.53;;;;;;;23.78;100.00;99836.80;1749340;80;21164;-57
2022/09/01 05:31:20;;;;;;;8.50;2.90;;;;;;;23.58;100.00;99837.75;1771044;80;20994;-58
2022/09/01 05:33:49;;;;;;;4.17;2.90;;;;;;;23.44;100.00;99837.58;1770869;80;21015;-57
2022/09/01 05:36:18;;;;;;;3.30;2.37;;;;;;;23.37;100.00;99839.77;1771515;80;21059;-56
2022/09/01 05:38:46;;;;;;;4.37;2.67;;;;;;;23.45;100.00;99839.20;1771701;80;21390;-57
2022/09/01 05:41:15;;;;;;;4.23;2.77;;;;;;;23.47;100.00;99835.70;1771702;80;21876;-56
2022/09/01 05:43:48;;;;;;;4.20;2.57;;;;;;;23.57;100.00;99838.04;1770748;80;20968;-60
2022/09/01 05:46:19;;;;;;;4.73;2.57;;;;;;;23.57;100.00;99828.73;1771983;80;21498;-57
2022/09/01 05:48:48;;;;;;;;;;;;;;;23.53;100.00;99827.95;1774810;80;21542;-56
2022/09/01 05:51:19;;;;;;;8.73;3.33;;;;;;;23.54;100.00;99838.05;1771494;80;20119;-65
2022/09/01 05:53:50;;;;;;;6.17;3.37;;;;;;;23.60;100.00;99841.45;1771386;80;21227;-57
2022/09/01 05:56:15;;;;;;;6.57;3.50;;;;;;;23.80;100.00;99834.66;1771688;80;20904;-55
2022/09/01 05:58:43;;;;;;;6.10;3.30;;;;;;;24.06;100.00;99834.41;1771993;80;21035;-57
2022/09/01 06:01:12;;;;;;;4.47;2.70;;;;;;;24.22;100.00;99833.16;1771688;80;21055;-56
2022/09/01 06:03:40;;;;;;;4.37;2.90;;;;;;;24.39;100.00;99837.50;1725328;80;21016;-57
2022/09/01 06:06:11;;;;;;;3.80;2.70;;;;;;;24.55;100.00;99839.98;1771778;80;21267;-56
2022/09/01 06:08:37;;;;;;;4.43;2.40;;;;;;;24.64;100.00;99835.62;1750108;80;21482;-56
2022/09/01 06:11:11;;;;;;;5.43;3.00;;;;;;;24.89;100.00;99830.46;1772346;80;20980;-56
2022/09/01 06:13:34;;;;;;;6.43;2.80;;;;;;;25.27;100.00;99831.80;1770131;80;20964;-59
2022/09/01 06:16:03;;;;;;;5.17;2.90;;;;;;;25.66;100.00;99831.44;1749970;80;21065;-58
2022/09/01 06:18:33;;;;;;;4.00;2.85;;;;;;;26.02;100.00;99829.48;1771491;80;21237;-56
2022/09/01 06:21:03;;;;;;;4.55;2.60;;;;;;;26.35;100.00;99826.95;1770993;80;20979;-56
2022/09/01 06:23:30;;;;;;;4.58;3.02;;;;;;;26.69;100.00;99825.75;1749602;80;20912;-63
2022/09/01 06:25:58;;;;;;;5.08;2.40;;;;;;;26.87;100.00;99832.05;1748843;80;21388;-56
2022/09/01 06:28:28;;;;;;;5.95;2.83;;;;;;;26.96;99.02;99829.44;1771702;80;21016;-56
2022/09/01 06:30:56;;;;;;;7.15;3.77;;;;;;;26.96;98.76;99830.78;1771991;80;21297;-56
2022/09/01 06:33:24;;;;;;;10.90;5.55;;;;;;;27.08;99.74;99837.71;1770923;80;21438;-64
2022/09/01 06:35:54;;;;;;;9.10;5.22;;;;;;;27.52;96.75;99841.52;1771366;80;21014;-57
2022/09/01 06:38:21;;;;;;;8.58;5.47;;;;;;;28.11;86.85;99840.82;1771237;80;21056;-57
2022/09/01 06:40:54;;;;;;;8.58;4.97;;;;;;;28.80;78.26;99844.22;1771285;80;21403;-56
2022/09/01 06:43:21;;;;;;;8.68;7.87;;;;;;;28.80;78.26;99844.22;1770398;80;21875;-61
2022/09/01 06:45:53;;;;;;;14.65;6.58;;;;;;;29.32;73.05;99832.95;1771374;80;22018;-57
2022/09/01 06:48:19;;;;;;;9.30;6.65;;;;;;;29.88;68.41;99834.30;1771475;80;20952;-57
2022/09/01 06:50:48;;;;;;;5.72;4.83;;;;;;;30.45;63.87;99841.16;1771729;80;21502;-57
2022/09/01 06:53:17;;;;;;;6.12;4.10;;;;;;;30.90;59.05;99837.87;1771483;80;21043;-58
2022/09/01 06:55:49;;;;;;;4.75;3.62;;;;;;;31.14;57.03;99835.83;1749640;80;22321;-56
2022/09/01 06:58:17;;;;;;;5.42;3.25;;;;;;;31.32;54.60;99848.61;1771908;80;20834;-56
2022/09/01 07:00:48;;;;;;;7.60;4.37;;;;;;;31.34;53.20;99843.69;1771326;80;21466;-55
2022/09/01 07:03:16;;;;;;;4.62;3.30;;;;;;;31.17;51.71;99849.42;1771519;80;21005;-63
2022/09/01 07:05:46;;;;;;;5.28;3.90;;;;;;;30.81;52.04;99844.67;1754298;80;21027;-55
2022/09/01 07:08:18;;;;;;;33.88;31.27;;;;;;;30.27;52.28;99853.38;1771976;80;21833;-54
2022/09/01 07:10:48;;;;;;;6.40;5.65;;;;;;;29.72;54.32;99850.73;1768257;80;20943;-54
2022/09/01 07:13:24;;;;;;;6.10;4.40;;;;;;;29.46;57.09;99856.13;1770816;80;20961;-64
2022/09/01 07:15:53;;;;;;;5.87;4.35;;;;;;;29.61;58.31;99843.56;1771667;80;21379;-54
2022/09/01 07:18:26;;;;;;;4.55;3.20;;;;;;;29.86;58.00;99831.73;1772208;80;21110;-54
2022/09/01 07:20:53;;;;;;;4.08;3.15;;;;;;;30.12;56.38;99833.74;1772115;80;21210;-54
2022/09/01 07:23:23;;;;;;;5.90;4.08;;;;;;;30.36;54.76;99814.89;1748868;80;20912;-54
2022/09/01 07:25:58;;;;;;;6.00;3.90;;;;;;;30.54;55.56;99816.36;1765592;80;21794;-54
2022/09/01 07:28:29;;;;;;;5.53;4.22;;;;;;;30.72;53.76;99813.77;1771725;80;20936;-54
2022/09/01 07:30:56;;;;;;;6.53;4.60;;;;;;;30.69;51.87;99814.42;1771131;80;21402;-62
2022/09/01 07:33:23;;;;;;;6.15;5.00;;;;;;;30.37;52.97;99821.28;1750145;80;21309;-55
2022/09/01 07:35:54;;;;;;;6.97;5.37;;;;;;;30.18;53.57;99824.95;1772466;80;20936;-56
2022/09/01 07:38:23;;;;;;;8.13;7.33;;;;;;;30.13;53.86;99829.15;1772008;80;20985;-56
2022/09/01 07:40:52;;;;;;;8.18;6.75;;;;;;;30.06;54.94;99826.96;1772023;80;21466;-62
2022/09/01 07:43:30;;;;;;;8.45;6.80;;;;;;;30.24;55.91;99823.66;1757862;80;21464;-55
2022/09/01 07:46:17;;;;;;;8.38;6.97;;;;;;;30.62;54.72;99818.20;1771746;80;21268;-54
2022/09/01 07:48:47;;;;;;;8.35;5.90;;;;;;;31.08;52.21;99818.33;1770737;80;20955;-63
2022/09/01 07:51:18;;;;;;;5.37;3.92;;;;;;;31.32;51.20;99825.72;1771366;80;20974;-55
2022/09/01 07:53:47;;;;;;;4.45;3.27;;;;;;;31.53;50.04;99821.06;1771509;80;20905;-55
2022/09/01 07:56:17;;;;;;;4.00;2.53;;;;;;;31.89;49.12;99822.24;1771900;80;21067;-55
2022/09/01 07:58:47;;;;;;;5.58;3.10;;;;;;;32.26;47.22;99820.89;1778191;80;21157;-63
2022/09/01 08:01:17;;;;;;;3.75;2.05;;;;;;;32.38;45.43;99821.66;1779264;80;21042;-56
2022/09/01 08:03:46;;;;;;;;;;;;;;;32.25;44.85;99817.98;1781914;80;21043;-55
2022/09/01 08:06:14;;;;;;;3.00;2.17;;;;;;;31.84;46.38;99815.70;1780114;80;20680;-62
2022/09/01 08:08:43;;;;;;;3.60;2.35;;;;;;;31.52;45.72;99819.50;1778834;80;20995;-57
2022/09/01 08:11:20;;;;;;;4.12;2.50;;;;;;;31.15;46.74;99822.62;1779655;80;21769;-55
2022/09/01 08:13:48;;;;;;;3.58;2.10;;;;;;;30.73;47.52;99815.91;1779858;80;21600;-54
2022/09/01 08:16:16;;;;;;;3.87;2.20;;;;;;;30.35;48.72;99821.39;1780010;80;20935;-65
2022/09/01 08:18:46;;;;;;;2.87;1.80;;;;;;;30.08;50.59;99818.03;1779465;80;20943;-55
2022/09/01 08:21:16;;;;;;;4.10;2.02;;;;;;;29.92;51.76;99808.92;1778280;80;21039;-55
2022/09/01 08:23:52;;;;;;;3.45;2.30;;;;;;;29.72;53.88;99810.43;1739012;80;21097;-54
2022/09/01 08:26:22;;;;;;;4.10;2.47;;;;;;;29.62;54.80;99812.90;1779864;80;21058;-63
2022/09/01 08:28:50;;;;;;;;;;;;;;;29.54;55.08;99806.97;1782968;80;21597;-54
2022/09/01 08:31:18;;;;;;;4.12;2.58;;;;;;;29.27;57.09;99811.62;1780252;80;20157;-54
2022/09/01 08:33:47;;;;;;;3.77;2.17;;;;;;;29.01;59.35;99813.55;1780285;80;21032;-54
2022/09/01 08:36:15;;;;;;;4.12;2.45;;;;;;;28.71;62.52;99810.67;1780245;80;21225;-54
2022/09/01 08:38:44;;;;;;;2.95;2.00;;;;;;;28.53;66.69;99807.76;1778530;80;20877;-55
2022/09/01 08:41:56;;;;;;;6.15;2.60;;;;;;;28.36;69.53;99810.59;1779732;80;21463;-55
2022/09/01 08:44:45;;;;;;;3.50;2.27;;;;;;;28.34;71.33;99807.45;1779640;80;21065;-54
2022/09/01 08:47:15;;;;;;;3.33;1.95;;;;;;;28.30;72.87;99812.42;1749293;80;21088;-57
2022/09/01 08:49:46;;;;;;;3.50;2.20;;;;;;;28.14;72.95;99802.66;1779202;80;21159;-65
2022/09/01 08:52:41;;;;;;;4.33;2.30;;;;;;;27.96;75.65;99801.84;1779990;80;20924;-56
2022/09/01 08:55:24;;;;;;;5.10;2.42;;;;;;;27.80;79.27;99803.33;1749226;80;20980;-60
2022/09/01 08:57:54;;;;;;;5.00;2.10;;;;;;;27.69;82.43;99802.77;1778088;80;21402;-57
2022/09/01 09:00:26;;;;;;;3.50;1.98;;;;;;;27.62;84.28;99800.56;1779568;80;21035;-56
2022/09/01 09:03:16;;;;;;;3.67;2.22;;;;;;;27.58;85.57;99810.86;1779815;80;21402;-58
2022/09/01 09:06:36;;;;;;;5.22;2.20;;;;;;;27.53;86.97;99809.63;1780209;80;21051;-56
2022/09/01 09:09:06;;;;;;;5.22;2.17;;;;;;;27.53;85.14;99812.30;1780242;80;21474;-57
2022/09/01 09:12:10;;;;;;;3.17;1.87;;;;;;;27.38;85.45;99817.49;1780010;80;21501;-56
2022/09/01 09:14:49;;;;;;;3.42;1.85;;;;;;;27.34;90.66;99821.88;1780117;80;21047;-56
2022/09/01 09:17:19;;;;;;;5.50;2.45;;;;;;;27.27;88.31;99827.65;1780076;80;21466;-56
2022/09/01 09:19:46;;;;;;;3.52;2.35;;;;;;;27.23;87.21;99828.57;1778909;80;20975;-56
2022/09/01 09:22:16;;;;;;;3.95;1.70;;;;;;;27.13;88.02;99841.66;1780414;80;21944;-57
2022/09/01 09:25:05;;;;;;;3.25;1.85;;;;;;;27.10;88.98;99838.22;1780064;80;20971;-57
2022/09/01 09:27:38;;;;;;;3.52;1.62;;;;;;;26.96;89.66;99848.95;1779031;80;21485;-57
2022/09/01 09:30:14;;;;;;;3.85;2.00;;;;;;;26.81;91.88;99864.78;1780386;80;21846;-56
2022/09/01 09:32:46;;;;;;;3.33;2.20;;;;;;;26.74;96.75;99877.77;1779880;80;21007;-56
2022/09/01 09:35:36;;;;;;;3.08;1.80;;;;;;;26.67;95.02;99894.79;1779229;80;21050;-64
2022/09/01 09:38:27;;;;;;;3.45;1.80;;;;;;;26.56;94.44;99900.88;1779306;80;20951;-55
2022/09/01 09:41:17;;;;;;;3.70;1.70;;;;;;;26.47;96.87;99905.32;1748728;80;21565;-54
2022/09/01 09:43:58;;;;;;;4.67;1.90;;;;;;;26.29;98.70;99900.83;1780088;80;21079;-56
2022/09/01 09:46:36;;;;;;;3.13;1.87;;;;;;;26.06;100.00;99891.91;1767124;80;20979;-55
2022/09/01 09:49:24;;;;;;;4.67;2.27;;;;;;;25.87;100.00;99895.42;1780229;80;21143;-54
2022/09/01 09:51:57;;;;;;;3.67;2.00;;;;;;;25.73;100.00;99903.94;1779222;80;20983;-63
2022/09/01 09:54:30;;;;;;;3.00;1.40;;;;;;;25.63;100.00;99903.55;1779668;80;21580;-54
2022/09/01 09:57:13;;;;;;;4.93;2.53;;;;;;;25.50;100.00;99898.97;1779331;80;21243;-57
2022/09/01 09:59:45;;;;;;;2.33;1.63;;;;;;;25.49;100.00;99889.35;1778912;80;21926;-54
2022/09/01 10:02:31;;;;;;;3.80;2.10;;;;;;;25.58;100.00;99881.50;1780232;80;20999;-55
2022/09/01 10:05:00;;;;;;;3.57;1.83;;;;;;;25.60;100.00;99880.64;1779296;80;21477;-64
2022/09/01 10:07:35;;;;;;;3.97;1.80;;;;;;;25.70;100.00;99887.16;1780485;80;21054;-55
2022/09/01 10:10:27;;;;;;;3.63;2.07;;;;;;;25.79;100.00;99890.77;1780744;80;21207;-55
2022/09/01 10:12:55;;;;;;;5.10;1.90;;;;;;;25.91;100.00;99893.78;1779514;80;21494;-54
2022/09/01 10:15:26;;;;;;;4.23;2.10;;;;;;;26.06;100.00;99903.38;1779963;80;21464;-54
2022/09/01 10:17:56;;;;;;;5.17;1.85;;;;;;;26.09;100.00;99908.13;1779375;80;20999;-54
2022/09/01 10:20:25;;;;;;;5.30;2.30;;;;;;;25.97;100.00;99910.50;1779702;80;21030;-56
2022/09/01 10:22:52;;;;;;;4.37;2.03;;;;;;;25.91;100.00;99911.66;1779517;80;21165;-54
2022/09/01 10:25:25;;;;;;;4.07;2.60;;;;;;;25.87;100.00;99909.32;1779926;80;20959;-54
2022/09/01 10:27:59;;;;;;;6.63;4.73;;;;;;;25.73;100.00;99907.39;1779850;80;20939;-54
2022/09/01 10:30:26;;;;;;;6.77;3.57;;;;;;;25.50;100.00;99906.18;1761033;80;20972;-64
2022/09/01 10:32:58;;;;;;;5.77;3.57;;;;;;;25.27;100.00;99905.98;1779522;80;21061;-54
2022/09/01 10:35:38;;;;;;;6.37;3.37;;;;;;;25.17;100.00;99891.45;1779502;80;21183;-54
2022/09/01 10:38:09;;;;;;;5.40;3.45;;;;;;;25.17;100.00;99890.11;1779435;80;20968;-61
2022/09/01 10:40:40;;;;;;;5.50;3.20;;;;;;;25.23;100.00;99891.09;1779462;80;21285;-54
2022/09/01 10:43:41;;;;;;;4.80;3.05;;;;;;;25.29;100.00;99890.46;1779868;80;21489;-54
2022/09/01 10:46:23;;;;;;;9.97;3.80;;;;;;;25.34;100.00;99884.25;1779744;80;21045;-54
2022/09/01 10:48:52;;;;;;;5.70;3.03;;;;;;;25.45;100.00;99873.67;1777985;80;21287;-55
2022/09/01 10:51:24;;;;;;;5.07;3.00;;;;;;;25.50;100.00;99875.49;1779939;80;20920;-54
2022/09/01 10:53:56;;;;;;;6.50;2.97;;;;;;;25.52;100.00;99864.76;1779532;80;21057;-55
2022/09/01 10:56:40;;;;;;;7.10;2.70;;;;;;;25.58;100.00;99864.15;1780053;80;21552;-55
2022/09/01 10:59:27;;;;;;;7.70;2.70;;;;;;;25.67;100.00;99850.37;1776436;80;21110;-64
2022/09/01 11:02:09;;;;;;;8.67;3.13;;;;;;;25.77;100.00;99844.86;1771687;80;21243;-54
2022/09/01 11:04:46;;;;;;;4.73;3.00;;;;;;;26.00;100.00;99840.47;1771673;80;21015;-54
2022/09/01 11:07:34;;;;;;;3.97;2.80;;;;;;;26.22;100.00;99834.45;1771864;80;20932;-55
2022/09/01 11:10:33;;;;;;;4.57;2.60;;;;;;;26.43;100.00;99822.80;1772009;80;20967;-55
2022/09/01 11:13:17;;;;;;;3.10;2.20;;;;;;;26.60;100.00;99814.20;1703690;80;20920;-54
2022/09/01 11:15:45;;;;;;;5.50;2.17;;;;;;;26.83;96.41;99806.45;1772185;80;21775;-54
2022/09/01 11:18:26;;;;;;;3.60;2.10;;;;;;;27.09;95.78;99797.30;1770325;80;20964;-55
2022/09/01 11:20:54;;;;;;;;;;;;;;;27.48;89.47;99793.16;1752307;80;20975;-55
2022/09/01 11:23:32;;;;;;;3.30;2.20;;;;;;;27.84;80.51;99794.39;1771787;80;20228;-55
2022/09/01 11:26:22;;;;;;;;;;;;;;;28.04;72.64;99786.89;1774863;80;21301;-54
2022/09/01 11:28:49;;;;;;;3.87;1.82;;;;;;;28.00;71.31;99777.90;1771000;80;21190;-55
2022/09/01 11:31:33;;;;;;;3.33;2.10;;;;;;;27.90;70.80;99776.28;1770806;80;20964;-59
2022/09/01 11:34:11;;;;;;;4.95;2.20;;;;;;;27.96;73.74;99786.28;1772066;80;20936;-54
2022/09/01 11:36:51;;;;;;;9.20;2.00;;;;;;;27.98;68.86;99773.39;1770889;80;21002;-65
2022/09/01 11:39:29;;;;;;;7.25;2.60;;;;;;;27.84;70.22;99771.63;1771294;80;21118;-54
2022/09/01 11:42:04;;;;;;;4.28;2.00;;;;;;;28.02;68.95;99768.98;1771749;80;21257;-55
2022/09/01 11:44:46;;;;;;;3.87;1.95;;;;;;;28.37;67.42;99767.19;1770972;80;20880;-56
2022/09/01 11:47:20;;;;;;;2.67;1.77;;;;;;;28.75;64.26;99759.34;1770958;80;20936;-54
2022/09/01 11:49:57;;;;;;;2.90;1.90;;;;;;;29.07;63.62;99766.66;1770663;80;20953;-56
2022/09/01 11:52:30;;;;;;;5.97;2.22;;;;;;;29.49;60.84;99756.13;1770839;80;21418;-55
2022/09/01 11:55:03;;;;;;;3.02;2.00;;;;;;;29.78;57.61;99761.58;1771786;80;21487;-54